sensor_id;sensor_type;location;lat;lon;timestamp;P1;durP1;ratioP1;P2;durP2;ratioP2
9436;SDS011;4757;59.334;18.034;2023-02-21T00:14:37;1.17;;;0.70;;
9436;SDS011;4757;59.334;18.034;2023-02-21T01:26:33;1.47;;;1.37;;
9436;SDS011;4757;59.334;18.034;2023-02-21T01:29:19;1.03;;;1.00;;
9436;SDS011;4757;59.334;18.034;2023-02-21T01:32:05;1.70;;;1.50;;
9436;SDS011;4757;59.334;18.034;2023-02-21T01:34:51;1.67;;;1.40;;
9436;SDS011;4757;59.334;18.034;2023-02-21T01:37:38;1.60;;;1.50;;
9436;SDS011;4757;59.334;18.034;2023-02-21T01:40:25;1.80;;;1.43;;
9436;SDS011;4757;59.334;18.034;2023-02-21T01:43:14;2.07;;;1.87;;
9436;SDS011;4757;59.334;18.034;2023-02-21T01:46:07;2.30;;;1.23;;
9436;SDS011;4757;59.334;18.034;2023-02-21T01:48:56;1.80;;;1.70;;
9436;SDS011;4757;59.334;18.034;2023-02-21T01:51:44;2.30;;;1.83;;
9436;SDS011;4757;59.334;18.034;2023-02-21T01:54:30;2.03;;;1.77;;
9436;SDS011;4757;59.334;18.034;2023-02-21T01:57:20;2.17;;;1.97;;
9436;SDS011;4757;59.334;18.034;2023-02-21T02:00:07;3.10;;;1.47;;
9436;SDS011;4757;59.334;18.034;2023-02-21T02:02:56;4.70;;;1.73;;
9436;SDS011;4757;59.334;18.034;2023-02-21T02:05:53;1.53;;;1.43;;
9436;SDS011;4757;59.334;18.034;2023-02-21T02:08:44;2.53;;;1.90;;
9436;SDS011;4757;59.334;18.034;2023-02-21T02:14:48;1.90;;;1.63;;
9436;SDS011;4757;59.334;18.034;2023-02-21T02:34:34;1.73;;;1.63;;
9436;SDS011;4757;59.334;18.034;2023-02-21T02:37:11;1.97;;;1.77;;
9436;SDS011;4757;59.334;18.034;2023-02-21T02:40:04;1.60;;;1.50;;
9436;SDS011;4757;59.334;18.034;2023-02-21T02:45:31;1.70;;;1.60;;
9436;SDS011;4757;59.334;18.034;2023-02-21T02:48:09;2.63;;;2.03;;
9436;SDS011;4757;59.334;18.034;2023-02-21T02:50:40;2.50;;;1.87;;
9436;SDS011;4757;59.334;18.034;2023-02-21T02:53:10;1.67;;;1.57;;
9436;SDS011;4757;59.334;18.034;2023-02-21T02:55:42;1.73;;;1.53;;
9436;SDS011;4757;59.334;18.034;2023-02-21T02:58:14;2.60;;;2.10;;
9436;SDS011;4757;59.334;18.034;2023-02-21T03:00:44;1.60;;;1.50;;
9436;SDS011;4757;59.334;18.034;2023-02-21T03:03:23;2.27;;;2.07;;
9436;SDS011;4757;59.334;18.034;2023-02-21T03:06:05;2.87;;;2.07;;
9436;SDS011;4757;59.334;18.034;2023-02-21T03:11:23;2.87;;;1.90;;
9436;SDS011;4757;59.334;18.034;2023-02-21T03:14:13;5.30;;;2.87;;
9436;SDS011;4757;59.334;18.034;2023-02-21T03:16:48;3.17;;;2.10;;
9436;SDS011;4757;59.334;18.034;2023-02-21T03:19:40;2.63;;;2.20;;
9436;SDS011;4757;59.334;18.034;2023-02-21T03:22:08;4.50;;;2.77;;
9436;SDS011;4757;59.334;18.034;2023-02-21T03:24:40;2.73;;;2.43;;
9436;SDS011;4757;59.334;18.034;2023-02-21T03:27:09;2.40;;;2.20;;
9436;SDS011;4757;59.334;18.034;2023-02-21T03:29:39;2.57;;;2.37;;
9436;SDS011;4757;59.334;18.034;2023-02-21T03:32:08;3.20;;;2.30;;
9436;SDS011;4757;59.334;18.034;2023-02-21T03:34:39;2.43;;;2.23;;
9436;SDS011;4757;59.334;18.034;2023-02-21T03:37:09;2.20;;;1.93;;
9436;SDS011;4757;59.334;18.034;2023-02-21T03:39:43;4.20;;;2.87;;
9436;SDS011;4757;59.334;18.034;2023-02-21T03:42:10;3.10;;;2.80;;
9436;SDS011;4757;59.334;18.034;2023-02-21T03:44:37;2.97;;;2.53;;
9436;SDS011;4757;59.334;18.034;2023-02-21T03:47:04;4.17;;;3.13;;
9436;SDS011;4757;59.334;18.034;2023-02-21T03:49:31;4.97;;;2.57;;
9436;SDS011;4757;59.334;18.034;2023-02-21T03:51:58;3.30;;;2.57;;
9436;SDS011;4757;59.334;18.034;2023-02-21T03:54:25;3.53;;;2.60;;
9436;SDS011;4757;59.334;18.034;2023-02-21T03:56:53;3.53;;;2.80;;
9436;SDS011;4757;59.334;18.034;2023-02-21T03:59:20;3.40;;;2.43;;
9436;SDS011;4757;59.334;18.034;2023-02-21T04:01:47;2.37;;;2.00;;
9436;SDS011;4757;59.334;18.034;2023-02-21T04:04:14;2.70;;;2.37;;
9436;SDS011;4757;59.334;18.034;2023-02-21T04:06:41;3.20;;;2.50;;
9436;SDS011;4757;59.334;18.034;2023-02-21T04:09:08;3.07;;;2.67;;
9436;SDS011;4757;59.334;18.034;2023-02-21T04:11:35;3.40;;;2.73;;
9436;SDS011;4757;59.334;18.034;2023-02-21T04:14:02;4.20;;;3.13;;
9436;SDS011;4757;59.334;18.034;2023-02-21T04:16:29;4.83;;;2.53;;
9436;SDS011;4757;59.334;18.034;2023-02-21T04:18:56;3.80;;;2.90;;
9436;SDS011;4757;59.334;18.034;2023-02-21T04:21:23;4.27;;;2.90;;
9436;SDS011;4757;59.334;18.034;2023-02-21T04:23:50;3.00;;;2.50;;
9436;SDS011;4757;59.334;18.034;2023-02-21T04:26:18;3.30;;;3.00;;
9436;SDS011;4757;59.334;18.034;2023-02-21T04:28:45;4.90;;;2.50;;
9436;SDS011;4757;59.334;18.034;2023-02-21T04:31:13;3.97;;;3.53;;
9436;SDS011;4757;59.334;18.034;2023-02-21T04:33:43;4.10;;;2.90;;
9436;SDS011;4757;59.334;18.034;2023-02-21T04:36:10;4.33;;;2.87;;
9436;SDS011;4757;59.334;18.034;2023-02-21T04:38:37;4.43;;;2.80;;
9436;SDS011;4757;59.334;18.034;2023-02-21T04:41:05;4.47;;;2.67;;
9436;SDS011;4757;59.334;18.034;2023-02-21T04:43:32;3.53;;;2.80;;
9436;SDS011;4757;59.334;18.034;2023-02-21T04:45:59;2.20;;;2.00;;
9436;SDS011;4757;59.334;18.034;2023-02-21T04:48:26;3.87;;;2.50;;
9436;SDS011;4757;59.334;18.034;2023-02-21T04:50:53;3.43;;;2.77;;
9436;SDS011;4757;59.334;18.034;2023-02-21T04:53:26;5.50;;;3.50;;
9436;SDS011;4757;59.334;18.034;2023-02-21T04:55:53;2.63;;;2.10;;
9436;SDS011;4757;59.334;18.034;2023-02-21T04:58:20;4.87;;;3.00;;
9436;SDS011;4757;59.334;18.034;2023-02-21T05:00:47;3.93;;;2.60;;
9436;SDS011;4757;59.334;18.034;2023-02-21T05:03:14;4.33;;;2.40;;
9436;SDS011;4757;59.334;18.034;2023-02-21T05:05:41;6.07;;;2.40;;
9436;SDS011;4757;59.334;18.034;2023-02-21T05:08:08;3.23;;;2.53;;
9436;SDS011;4757;59.334;18.034;2023-02-21T05:10:35;6.70;;;4.17;;
9436;SDS011;4757;59.334;18.034;2023-02-21T05:13:11;2.70;;;2.50;;
9436;SDS011;4757;59.334;18.034;2023-02-21T05:15:39;4.03;;;2.50;;
9436;SDS011;4757;59.334;18.034;2023-02-21T05:18:06;3.37;;;2.53;;
9436;SDS011;4757;59.334;18.034;2023-02-21T05:20:33;2.13;;;1.93;;
9436;SDS011;4757;59.334;18.034;2023-02-21T05:23:00;2.10;;;1.80;;
9436;SDS011;4757;59.334;18.034;2023-02-21T05:25:39;2.90;;;2.60;;
9436;SDS011;4757;59.334;18.034;2023-02-21T05:28:06;3.93;;;2.23;;
9436;SDS011;4757;59.334;18.034;2023-02-21T05:30:33;2.73;;;1.97;;
9436;SDS011;4757;59.334;18.034;2023-02-21T05:33:00;3.77;;;2.30;;
9436;SDS011;4757;59.334;18.034;2023-02-21T05:35:27;3.37;;;2.40;;
9436;SDS011;4757;59.334;18.034;2023-02-21T05:37:54;2.37;;;1.93;;
9436;SDS011;4757;59.334;18.034;2023-02-21T05:40:21;2.63;;;2.00;;
9436;SDS011;4757;59.334;18.034;2023-02-21T05:42:48;2.57;;;2.37;;
9436;SDS011;4757;59.334;18.034;2023-02-21T05:45:15;1.97;;;1.80;;
9436;SDS011;4757;59.334;18.034;2023-02-21T05:47:43;2.33;;;1.93;;
9436;SDS011;4757;59.334;18.034;2023-02-21T05:50:10;2.27;;;2.07;;
9436;SDS011;4757;59.334;18.034;2023-02-21T05:52:37;1.70;;;1.60;;
9436;SDS011;4757;59.334;18.034;2023-02-21T05:55:04;3.70;;;2.70;;
9436;SDS011;4757;59.334;18.034;2023-02-21T05:57:36;1.83;;;1.60;;
9436;SDS011;4757;59.334;18.034;2023-02-21T06:00:04;2.20;;;1.73;;
9436;SDS011;4757;59.334;18.034;2023-02-21T06:02:31;3.83;;;1.70;;
9436;SDS011;4757;59.334;18.034;2023-02-21T06:04:59;3.20;;;2.60;;
9436;SDS011;4757;59.334;18.034;2023-02-21T06:07:26;3.03;;;2.30;;
9436;SDS011;4757;59.334;18.034;2023-02-21T06:09:53;2.57;;;2.00;;
9436;SDS011;4757;59.334;18.034;2023-02-21T06:12:20;2.13;;;1.67;;
9436;SDS011;4757;59.334;18.034;2023-02-21T06:14:47;5.13;;;2.20;;
9436;SDS011;4757;59.334;18.034;2023-02-21T06:17:14;3.33;;;2.20;;
9436;SDS011;4757;59.334;18.034;2023-02-21T06:19:41;2.23;;;1.87;;
9436;SDS011;4757;59.334;18.034;2023-02-21T06:22:08;2.77;;;2.30;;
9436;SDS011;4757;59.334;18.034;2023-02-21T06:24:36;2.57;;;1.90;;
9436;SDS011;4757;59.334;18.034;2023-02-21T06:27:03;2.27;;;1.63;;
9436;SDS011;4757;59.334;18.034;2023-02-21T06:29:30;2.40;;;1.57;;
9436;SDS011;4757;59.334;18.034;2023-02-21T06:31:57;1.40;;;1.27;;
9436;SDS011;4757;59.334;18.034;2023-02-21T06:34:26;1.93;;;1.73;;
9436;SDS011;4757;59.334;18.034;2023-02-21T06:36:54;2.70;;;1.90;;
9436;SDS011;4757;59.334;18.034;2023-02-21T06:39:21;2.37;;;2.03;;
9436;SDS011;4757;59.334;18.034;2023-02-21T06:41:49;2.37;;;2.00;;
9436;SDS011;4757;59.334;18.034;2023-02-21T06:44:16;6.03;;;4.57;;
9436;SDS011;4757;59.334;18.034;2023-02-21T06:46:44;3.67;;;2.37;;
9436;SDS011;4757;59.334;18.034;2023-02-21T06:49:13;2.90;;;1.90;;
9436;SDS011;4757;59.334;18.034;2023-02-21T06:51:41;2.03;;;1.67;;
9436;SDS011;4757;59.334;18.034;2023-02-21T06:54:08;2.27;;;2.03;;
9436;SDS011;4757;59.334;18.034;2023-02-21T06:56:36;2.43;;;2.17;;
9436;SDS011;4757;59.334;18.034;2023-02-21T06:59:03;2.53;;;1.97;;
9436;SDS011;4757;59.334;18.034;2023-02-21T07:01:34;4.00;;;1.47;;
9436;SDS011;4757;59.334;18.034;2023-02-21T07:04:02;2.50;;;2.30;;
9436;SDS011;4757;59.334;18.034;2023-02-21T07:06:29;3.23;;;1.93;;
9436;SDS011;4757;59.334;18.034;2023-02-21T07:08:58;3.50;;;2.23;;
9436;SDS011;4757;59.334;18.034;2023-02-21T07:11:32;3.03;;;2.53;;
9436;SDS011;4757;59.334;18.034;2023-02-21T07:14:00;1.90;;;1.70;;
9436;SDS011;4757;59.334;18.034;2023-02-21T07:16:29;3.90;;;2.90;;
9436;SDS011;4757;59.334;18.034;2023-02-21T07:18:56;4.33;;;2.30;;
9436;SDS011;4757;59.334;18.034;2023-02-21T07:21:24;3.23;;;2.53;;
9436;SDS011;4757;59.334;18.034;2023-02-21T07:23:53;4.50;;;2.50;;
9436;SDS011;4757;59.334;18.034;2023-02-21T07:26:21;3.60;;;2.50;;
9436;SDS011;4757;59.334;18.034;2023-02-21T07:28:48;5.13;;;2.53;;
9436;SDS011;4757;59.334;18.034;2023-02-21T07:31:17;3.13;;;1.97;;
9436;SDS011;4757;59.334;18.034;2023-02-21T07:33:46;3.37;;;2.60;;
9436;SDS011;4757;59.334;18.034;2023-02-21T07:36:13;2.90;;;2.10;;
9436;SDS011;4757;59.334;18.034;2023-02-21T07:38:40;2.53;;;2.00;;
9436;SDS011;4757;59.334;18.034;2023-02-21T07:41:08;2.27;;;2.07;;
9436;SDS011;4757;59.334;18.034;2023-02-21T07:43:35;5.97;;;3.50;;
9436;SDS011;4757;59.334;18.034;2023-02-21T07:46:08;4.40;;;3.03;;
9436;SDS011;4757;59.334;18.034;2023-02-21T07:48:39;2.93;;;2.43;;
9436;SDS011;4757;59.334;18.034;2023-02-21T07:51:07;4.90;;;3.17;;
9436;SDS011;4757;59.334;18.034;2023-02-21T07:53:34;5.10;;;3.13;;
9436;SDS011;4757;59.334;18.034;2023-02-21T07:56:02;5.37;;;3.27;;
9436;SDS011;4757;59.334;18.034;2023-02-21T07:58:30;2.93;;;2.63;;
9436;SDS011;4757;59.334;18.034;2023-02-21T08:00:57;4.97;;;3.03;;
9436;SDS011;4757;59.334;18.034;2023-02-21T08:03:25;7.10;;;4.27;;
9436;SDS011;4757;59.334;18.034;2023-02-21T08:05:52;3.87;;;2.80;;
9436;SDS011;4757;59.334;18.034;2023-02-21T08:08:19;7.60;;;3.10;;
9436;SDS011;4757;59.334;18.034;2023-02-21T08:10:47;5.90;;;4.07;;
9436;SDS011;4757;59.334;18.034;2023-02-21T08:13:15;4.53;;;3.47;;
9436;SDS011;4757;59.334;18.034;2023-02-21T08:15:42;5.93;;;3.57;;
9436;SDS011;4757;59.334;18.034;2023-02-21T08:18:19;6.60;;;3.67;;
9436;SDS011;4757;59.334;18.034;2023-02-21T08:20:50;5.00;;;3.03;;
9436;SDS011;4757;59.334;18.034;2023-02-21T08:23:18;6.13;;;3.93;;
9436;SDS011;4757;59.334;18.034;2023-02-21T08:25:46;5.47;;;2.67;;
9436;SDS011;4757;59.334;18.034;2023-02-21T08:28:13;5.73;;;3.13;;
9436;SDS011;4757;59.334;18.034;2023-02-21T08:30:45;4.07;;;3.00;;
9436;SDS011;4757;59.334;18.034;2023-02-21T08:33:12;5.17;;;3.27;;
9436;SDS011;4757;59.334;18.034;2023-02-21T08:35:39;5.60;;;3.30;;
9436;SDS011;4757;59.334;18.034;2023-02-21T08:38:06;6.70;;;3.17;;
9436;SDS011;4757;59.334;18.034;2023-02-21T08:40:35;3.90;;;2.93;;
9436;SDS011;4757;59.334;18.034;2023-02-21T08:43:03;5.33;;;3.43;;
9436;SDS011;4757;59.334;18.034;2023-02-21T08:45:31;3.67;;;2.67;;
9436;SDS011;4757;59.334;18.034;2023-02-21T08:47:58;4.87;;;3.00;;
9436;SDS011;4757;59.334;18.034;2023-02-21T08:50:26;4.07;;;3.23;;
9436;SDS011;4757;59.334;18.034;2023-02-21T08:52:54;6.93;;;3.93;;
9436;SDS011;4757;59.334;18.034;2023-02-21T08:55:22;4.80;;;3.80;;
9436;SDS011;4757;59.334;18.034;2023-02-21T08:57:51;3.53;;;2.60;;
9436;SDS011;4757;59.334;18.034;2023-02-21T09:00:20;4.47;;;3.03;;
9436;SDS011;4757;59.334;18.034;2023-02-21T09:02:50;6.20;;;4.07;;
9436;SDS011;4757;59.334;18.034;2023-02-21T09:05:22;4.60;;;3.90;;
9436;SDS011;4757;59.334;18.034;2023-02-21T09:07:53;11.53;;;4.83;;
9436;SDS011;4757;59.334;18.034;2023-02-21T09:10:24;3.83;;;3.00;;
9436;SDS011;4757;59.334;18.034;2023-02-21T09:13:01;3.87;;;3.13;;
9436;SDS011;4757;59.334;18.034;2023-02-21T09:15:28;6.20;;;3.23;;
9436;SDS011;4757;59.334;18.034;2023-02-21T09:17:55;4.20;;;3.00;;
9436;SDS011;4757;59.334;18.034;2023-02-21T09:20:23;2.90;;;2.27;;
9436;SDS011;4757;59.334;18.034;2023-02-21T09:22:51;4.07;;;3.33;;
9436;SDS011;4757;59.334;18.034;2023-02-21T09:25:20;3.70;;;3.20;;
9436;SDS011;4757;59.334;18.034;2023-02-21T09:27:50;6.07;;;3.43;;
9436;SDS011;4757;59.334;18.034;2023-02-21T09:30:20;4.73;;;3.27;;
9436;SDS011;4757;59.334;18.034;2023-02-21T09:32:49;3.60;;;2.97;;
9436;SDS011;4757;59.334;18.034;2023-02-21T09:35:17;3.40;;;2.40;;
9436;SDS011;4757;59.334;18.034;2023-02-21T09:37:44;4.60;;;3.27;;
9436;SDS011;4757;59.334;18.034;2023-02-21T09:43:02;2.60;;;2.20;;
9436;SDS011;4757;59.334;18.034;2023-02-21T09:45:32;4.50;;;3.63;;
9436;SDS011;4757;59.334;18.034;2023-02-21T09:48:11;4.90;;;3.40;;
9436;SDS011;4757;59.334;18.034;2023-02-21T09:50:48;5.73;;;3.37;;
9436;SDS011;4757;59.334;18.034;2023-02-21T09:53:28;3.27;;;2.97;;
9436;SDS011;4757;59.334;18.034;2023-02-21T09:55:59;4.73;;;2.27;;
9436;SDS011;4757;59.334;18.034;2023-02-21T09:58:31;3.50;;;3.00;;
9436;SDS011;4757;59.334;18.034;2023-02-21T10:01:02;3.43;;;2.73;;
9436;SDS011;4757;59.334;18.034;2023-02-21T10:03:44;4.27;;;3.87;;
9436;SDS011;4757;59.334;18.034;2023-02-21T10:09:12;4.10;;;3.57;;
9436;SDS011;4757;59.334;18.034;2023-02-21T10:12:07;2.53;;;2.33;;
9436;SDS011;4757;59.334;18.034;2023-02-21T10:20:54;5.13;;;3.83;;
9436;SDS011;4757;59.334;18.034;2023-02-21T10:23:35;3.03;;;2.73;;
9436;SDS011;4757;59.334;18.034;2023-02-21T10:26:06;4.07;;;3.20;;
9436;SDS011;4757;59.334;18.034;2023-02-21T10:28:36;3.07;;;2.73;;
9436;SDS011;4757;59.334;18.034;2023-02-21T10:31:07;3.40;;;2.70;;
9436;SDS011;4757;59.334;18.034;2023-02-21T10:33:41;2.67;;;2.23;;
9436;SDS011;4757;59.334;18.034;2023-02-21T10:36:18;3.57;;;3.13;;
9436;SDS011;4757;59.334;18.034;2023-02-21T10:41:23;4.60;;;3.50;;
9436;SDS011;4757;59.334;18.034;2023-02-21T10:44:06;3.00;;;2.70;;
9436;SDS011;4757;59.334;18.034;2023-02-21T10:47:28;5.37;;;3.40;;
9436;SDS011;4757;59.334;18.034;2023-02-21T10:49:45;3.90;;;2.67;;
9436;SDS011;4757;59.334;18.034;2023-02-21T10:52:29;1.93;;;1.60;;
9436;SDS011;4757;59.334;18.034;2023-02-21T10:55:12;3.07;;;2.30;;
9436;SDS011;4757;59.334;18.034;2023-02-21T10:57:58;4.30;;;2.93;;
9436;SDS011;4757;59.334;18.034;2023-02-21T11:00:35;2.70;;;2.10;;
9436;SDS011;4757;59.334;18.034;2023-02-21T11:03:05;5.33;;;3.07;;
9436;SDS011;4757;59.334;18.034;2023-02-21T11:05:47;5.83;;;3.87;;
9436;SDS011;4757;59.334;18.034;2023-02-21T11:08:38;7.43;;;5.33;;
9436;SDS011;4757;59.334;18.034;2023-02-21T11:11:07;2.57;;;2.37;;
9436;SDS011;4757;59.334;18.034;2023-02-21T11:13:36;5.50;;;3.67;;
9436;SDS011;4757;59.334;18.034;2023-02-21T11:16:19;4.30;;;3.20;;
9436;SDS011;4757;59.334;18.034;2023-02-21T11:19:05;5.57;;;2.73;;
9436;SDS011;4757;59.334;18.034;2023-02-21T11:21:38;2.13;;;1.90;;
9436;SDS011;4757;59.334;18.034;2023-02-21T11:24:15;4.63;;;3.60;;
9436;SDS011;4757;59.334;18.034;2023-02-21T11:26:49;3.57;;;3.27;;
9436;SDS011;4757;59.334;18.034;2023-02-21T11:29:19;4.13;;;3.00;;
9436;SDS011;4757;59.334;18.034;2023-02-21T11:31:54;3.83;;;3.43;;
9436;SDS011;4757;59.334;18.034;2023-02-21T11:34:21;4.37;;;2.97;;
9436;SDS011;4757;59.334;18.034;2023-02-21T11:36:55;2.87;;;2.03;;
9436;SDS011;4757;59.334;18.034;2023-02-21T11:39:32;3.87;;;3.03;;
9436;SDS011;4757;59.334;18.034;2023-02-21T11:42:23;4.57;;;2.30;;
9436;SDS011;4757;59.334;18.034;2023-02-21T11:48:00;3.10;;;2.77;;
9436;SDS011;4757;59.334;18.034;2023-02-21T11:50:35;5.03;;;2.70;;
9436;SDS011;4757;59.334;18.034;2023-02-21T11:53:12;3.87;;;2.00;;
9436;SDS011;4757;59.334;18.034;2023-02-21T11:58:48;2.80;;;2.37;;
9436;SDS011;4757;59.334;18.034;2023-02-21T12:01:49;4.33;;;2.63;;
9436;SDS011;4757;59.334;18.034;2023-02-21T12:04:34;3.40;;;2.50;;
9436;SDS011;4757;59.334;18.034;2023-02-21T12:07:31;4.43;;;3.27;;
9436;SDS011;4757;59.334;18.034;2023-02-21T12:12:41;3.03;;;2.63;;
9436;SDS011;4757;59.334;18.034;2023-02-21T12:31:35;2.90;;;2.50;;
9436;SDS011;4757;59.334;18.034;2023-02-21T12:34:25;5.03;;;2.87;;
9436;SDS011;4757;59.334;18.034;2023-02-21T12:46:30;5.07;;;4.23;;
9436;SDS011;4757;59.334;18.034;2023-02-21T12:54:33;3.17;;;2.73;;
9436;SDS011;4757;59.334;18.034;2023-02-21T12:57:08;6.63;;;3.70;;
9436;SDS011;4757;59.334;18.034;2023-02-21T13:02:32;4.63;;;3.00;;
9436;SDS011;4757;59.334;18.034;2023-02-21T13:05:18;5.20;;;3.73;;
9436;SDS011;4757;59.334;18.034;2023-02-21T13:07:59;5.40;;;3.13;;
9436;SDS011;4757;59.334;18.034;2023-02-21T13:10:45;2.20;;;2.00;;
9436;SDS011;4757;59.334;18.034;2023-02-21T13:13:15;5.00;;;3.00;;
9436;SDS011;4757;59.334;18.034;2023-02-21T13:15:48;4.83;;;2.80;;
9436;SDS011;4757;59.334;18.034;2023-02-21T13:18:26;3.20;;;2.33;;
9436;SDS011;4757;59.334;18.034;2023-02-21T13:24:15;4.93;;;2.70;;
9436;SDS011;4757;59.334;18.034;2023-02-21T13:29:41;5.03;;;2.10;;
9436;SDS011;4757;59.334;18.034;2023-02-21T13:32:10;3.57;;;2.80;;
9436;SDS011;4757;59.334;18.034;2023-02-21T13:35:00;3.90;;;2.60;;
9436;SDS011;4757;59.334;18.034;2023-02-21T13:37:29;2.63;;;2.17;;
9436;SDS011;4757;59.334;18.034;2023-02-21T13:40:03;2.20;;;1.93;;
9436;SDS011;4757;59.334;18.034;2023-02-21T13:42:58;2.33;;;2.13;;
9436;SDS011;4757;59.334;18.034;2023-02-21T13:45:29;3.23;;;2.47;;
9436;SDS011;4757;59.334;18.034;2023-02-21T13:58:37;2.60;;;2.40;;
9436;SDS011;4757;59.334;18.034;2023-02-21T14:03:56;4.47;;;2.90;;
9436;SDS011;4757;59.334;18.034;2023-02-21T14:08:59;2.07;;;1.73;;
9436;SDS011;4757;59.334;18.034;2023-02-21T14:11:42;2.57;;;2.37;;
9436;SDS011;4757;59.334;18.034;2023-02-21T14:14:20;3.87;;;2.73;;
9436;SDS011;4757;59.334;18.034;2023-02-21T14:17:03;2.87;;;2.33;;
9436;SDS011;4757;59.334;18.034;2023-02-21T14:22:29;2.87;;;2.20;;
9436;SDS011;4757;59.334;18.034;2023-02-21T14:25:05;3.10;;;2.13;;
9436;SDS011;4757;59.334;18.034;2023-02-21T14:27:39;5.57;;;2.60;;
9436;SDS011;4757;59.334;18.034;2023-02-21T14:38:01;2.07;;;1.90;;
9436;SDS011;4757;59.334;18.034;2023-02-21T14:43:19;5.17;;;3.07;;
9436;SDS011;4757;59.334;18.034;2023-02-21T14:57:15;3.73;;;2.40;;
9436;SDS011;4757;59.334;18.034;2023-02-21T15:00:38;7.07;;;2.87;;
9436;SDS011;4757;59.334;18.034;2023-02-21T15:03:46;4.53;;;2.97;;
9436;SDS011;4757;59.334;18.034;2023-02-21T15:06:33;3.93;;;3.10;;
9436;SDS011;4757;59.334;18.034;2023-02-21T15:09:12;6.83;;;4.07;;
9436;SDS011;4757;59.334;18.034;2023-02-21T15:11:44;6.83;;;3.50;;
9436;SDS011;4757;59.334;18.034;2023-02-21T15:19:31;2.83;;;2.47;;
9436;SDS011;4757;59.334;18.034;2023-02-21T15:22:11;4.63;;;3.57;;
9436;SDS011;4757;59.334;18.034;2023-02-21T15:24:57;5.40;;;3.43;;
9436;SDS011;4757;59.334;18.034;2023-02-21T15:27:24;5.80;;;5.20;;
9436;SDS011;4757;59.334;18.034;2023-02-21T15:30:13;6.20;;;4.13;;
9436;SDS011;4757;59.334;18.034;2023-02-21T15:32:56;3.70;;;3.20;;
9436;SDS011;4757;59.334;18.034;2023-02-21T15:35:42;9.23;;;7.53;;
9436;SDS011;4757;59.334;18.034;2023-02-21T15:41:24;5.97;;;3.50;;
9436;SDS011;4757;59.334;18.034;2023-02-21T15:44:27;5.50;;;4.17;;
9436;SDS011;4757;59.334;18.034;2023-02-21T15:46:58;7.77;;;5.53;;
9436;SDS011;4757;59.334;18.034;2023-02-21T15:50:25;5.60;;;3.40;;
9436;SDS011;4757;59.334;18.034;2023-02-21T15:55:47;5.33;;;3.87;;
9436;SDS011;4757;59.334;18.034;2023-02-21T15:58:24;3.03;;;2.73;;
9436;SDS011;4757;59.334;18.034;2023-02-21T16:01:04;5.30;;;3.10;;
9436;SDS011;4757;59.334;18.034;2023-02-21T16:03:41;4.73;;;2.70;;
9436;SDS011;4757;59.334;18.034;2023-02-21T16:09:26;6.37;;;4.03;;
9436;SDS011;4757;59.334;18.034;2023-02-21T16:17:37;3.27;;;2.97;;
9436;SDS011;4757;59.334;18.034;2023-02-21T16:20:17;6.53;;;4.27;;
9436;SDS011;4757;59.334;18.034;2023-02-21T16:23:24;4.33;;;2.57;;
9436;SDS011;4757;59.334;18.034;2023-02-21T16:28:45;4.23;;;2.37;;
9436;SDS011;4757;59.334;18.034;2023-02-21T16:31:16;6.47;;;3.93;;
9436;SDS011;4757;59.334;18.034;2023-02-21T16:33:53;9.33;;;3.93;;
9436;SDS011;4757;59.334;18.034;2023-02-21T16:36:25;6.00;;;3.97;;
9436;SDS011;4757;59.334;18.034;2023-02-21T16:38:56;8.47;;;5.07;;
9436;SDS011;4757;59.334;18.034;2023-02-21T16:41:24;6.30;;;5.07;;
9436;SDS011;4757;59.334;18.034;2023-02-21T16:43:55;6.53;;;4.67;;
9436;SDS011;4757;59.334;18.034;2023-02-21T16:46:24;9.13;;;6.70;;
9436;SDS011;4757;59.334;18.034;2023-02-21T16:48:55;9.40;;;7.47;;
9436;SDS011;4757;59.334;18.034;2023-02-21T16:51:25;4.93;;;3.40;;
9436;SDS011;4757;59.334;18.034;2023-02-21T16:53:59;10.60;;;5.90;;
9436;SDS011;4757;59.334;18.034;2023-02-21T16:56:26;6.80;;;5.27;;
9436;SDS011;4757;59.334;18.034;2023-02-21T16:58:54;14.63;;;6.73;;
9436;SDS011;4757;59.334;18.034;2023-02-21T17:01:31;8.47;;;4.93;;
9436;SDS011;4757;59.334;18.034;2023-02-21T17:04:01;9.47;;;6.80;;
9436;SDS011;4757;59.334;18.034;2023-02-21T17:06:31;6.97;;;5.80;;
9436;SDS011;4757;59.334;18.034;2023-02-21T17:08:59;13.20;;;6.40;;
9436;SDS011;4757;59.334;18.034;2023-02-21T17:11:27;8.10;;;5.10;;
9436;SDS011;4757;59.334;18.034;2023-02-21T17:13:54;7.20;;;5.17;;
9436;SDS011;4757;59.334;18.034;2023-02-21T17:16:21;9.53;;;4.27;;
9436;SDS011;4757;59.334;18.034;2023-02-21T17:18:49;11.80;;;6.87;;
9436;SDS011;4757;59.334;18.034;2023-02-21T17:21:16;8.87;;;5.23;;
9436;SDS011;4757;59.334;18.034;2023-02-21T17:23:43;7.67;;;5.23;;
9436;SDS011;4757;59.334;18.034;2023-02-21T17:26:10;5.47;;;4.20;;
9436;SDS011;4757;59.334;18.034;2023-02-21T17:28:38;7.00;;;4.57;;
9436;SDS011;4757;59.334;18.034;2023-02-21T17:31:05;6.53;;;4.47;;
9436;SDS011;4757;59.334;18.034;2023-02-21T17:33:32;13.07;;;6.03;;
9436;SDS011;4757;59.334;18.034;2023-02-21T17:36:00;9.80;;;5.90;;
9436;SDS011;4757;59.334;18.034;2023-02-21T17:38:28;8.60;;;6.20;;
9436;SDS011;4757;59.334;18.034;2023-02-21T17:40:55;4.33;;;3.10;;
9436;SDS011;4757;59.334;18.034;2023-02-21T17:43:22;5.30;;;4.50;;
9436;SDS011;4757;59.334;18.034;2023-02-21T17:45:50;7.83;;;6.13;;
9436;SDS011;4757;59.334;18.034;2023-02-21T17:48:17;9.37;;;6.43;;
9436;SDS011;4757;59.334;18.034;2023-02-21T17:50:45;8.27;;;5.03;;
9436;SDS011;4757;59.334;18.034;2023-02-21T17:53:12;9.03;;;5.53;;
9436;SDS011;4757;59.334;18.034;2023-02-21T17:55:40;10.20;;;5.97;;
9436;SDS011;4757;59.334;18.034;2023-02-21T17:58:07;12.60;;;6.77;;
9436;SDS011;4757;59.334;18.034;2023-02-21T18:00:36;8.90;;;6.43;;
9436;SDS011;4757;59.334;18.034;2023-02-21T18:03:04;12.70;;;7.67;;
9436;SDS011;4757;59.334;18.034;2023-02-21T18:05:32;10.67;;;6.83;;
9436;SDS011;4757;59.334;18.034;2023-02-21T18:08:01;11.07;;;6.73;;
9436;SDS011;4757;59.334;18.034;2023-02-21T18:10:28;5.23;;;4.13;;
9436;SDS011;4757;59.334;18.034;2023-02-21T18:12:57;7.90;;;5.73;;
9436;SDS011;4757;59.334;18.034;2023-02-21T18:15:25;7.30;;;5.13;;
9436;SDS011;4757;59.334;18.034;2023-02-21T18:17:55;10.77;;;6.87;;
9436;SDS011;4757;59.334;18.034;2023-02-21T18:20:31;6.97;;;4.30;;
9436;SDS011;4757;59.334;18.034;2023-02-21T18:22:59;10.00;;;5.70;;
9436;SDS011;4757;59.334;18.034;2023-02-21T18:25:30;9.97;;;5.80;;
9436;SDS011;4757;59.334;18.034;2023-02-21T18:28:02;13.50;;;7.93;;
9436;SDS011;4757;59.334;18.034;2023-02-21T18:30:30;7.30;;;4.77;;
9436;SDS011;4757;59.334;18.034;2023-02-21T18:32:57;12.00;;;5.47;;
9436;SDS011;4757;59.334;18.034;2023-02-21T18:35:25;8.40;;;5.67;;
9436;SDS011;4757;59.334;18.034;2023-02-21T18:37:52;7.70;;;4.93;;
9436;SDS011;4757;59.334;18.034;2023-02-21T18:40:19;10.60;;;6.30;;
9436;SDS011;4757;59.334;18.034;2023-02-21T18:43:05;9.80;;;5.47;;
9436;SDS011;4757;59.334;18.034;2023-02-21T18:45:32;9.67;;;6.50;;
9436;SDS011;4757;59.334;18.034;2023-02-21T18:48:00;7.73;;;5.57;;
9436;SDS011;4757;59.334;18.034;2023-02-21T18:50:27;9.83;;;4.93;;
9436;SDS011;4757;59.334;18.034;2023-02-21T18:52:54;7.07;;;4.70;;
9436;SDS011;4757;59.334;18.034;2023-02-21T18:55:22;7.90;;;5.57;;
9436;SDS011;4757;59.334;18.034;2023-02-21T18:57:49;7.50;;;5.27;;
9436;SDS011;4757;59.334;18.034;2023-02-21T19:00:19;8.63;;;5.63;;
9436;SDS011;4757;59.334;18.034;2023-02-21T19:02:46;7.57;;;4.67;;
9436;SDS011;4757;59.334;18.034;2023-02-21T19:05:22;10.27;;;5.27;;
9436;SDS011;4757;59.334;18.034;2023-02-21T19:07:50;8.43;;;6.20;;
9436;SDS011;4757;59.334;18.034;2023-02-21T19:10:19;6.97;;;5.13;;
9436;SDS011;4757;59.334;18.034;2023-02-21T19:12:49;7.23;;;5.93;;
9436;SDS011;4757;59.334;18.034;2023-02-21T19:15:16;7.23;;;5.67;;
9436;SDS011;4757;59.334;18.034;2023-02-21T19:17:45;7.20;;;5.40;;
9436;SDS011;4757;59.334;18.034;2023-02-21T19:20:16;5.87;;;5.10;;
9436;SDS011;4757;59.334;18.034;2023-02-21T19:22:45;7.63;;;5.43;;
9436;SDS011;4757;59.334;18.034;2023-02-21T19:25:27;9.17;;;5.27;;
9436;SDS011;4757;59.334;18.034;2023-02-21T19:27:56;5.87;;;5.07;;
9436;SDS011;4757;59.334;18.034;2023-02-21T19:30:27;7.53;;;4.93;;